Time;durP1;ratioP1;P1;durP2;ratioP2;P2;SDS_P1;SDS_P2;PMS_P1;PMS_P2;Temp;Humidity;BMP_temperature;BMP_pressure;BME280_temperature;BME280_humidity;BME280_pressure;Samples;Min_cycle;Max_cycle;Signal;HPM_P1;HPM_P2
2021/07/17 00:00:42;;;;;;;0.57;0.57;;;;;;;-142.37;100.00;59669.53;5038899;28;20484;-67
2021/07/17 00:03:13;;;;;;;2.10;0.60;;;;;;;-142.37;100.00;59669.53;5025376;28;20024;-67
2021/07/17 00:05:39;;;;;;;1.00;0.75;;;;;;;-142.37;100.00;59669.53;5013265;28;20025;-67
2021/07/17 00:08:05;;;;;;;1.60;0.45;;;;;;;-142.37;100.00;59669.53;5020435;28;20014;-67
2021/07/17 00:10:42;;;;;;;1.52;0.50;;;;;;;-142.37;100.00;59669.53;5032043;28;20063;-67
2021/07/17 00:13:08;;;;;;;0.63;0.32;;;;;;;-142.37;100.00;59669.53;5033313;28;20025;-67
2021/07/17 00:15:35;;;;;;;0.70;0.45;;;;;;;-142.37;100.00;59669.53;5033153;28;20032;-68
2021/07/17 00:18:02;;;;;;;1.90;0.50;;;;;;;-142.37;100.00;59669.53;5024588;28;20069;-67
2021/07/17 00:20:28;;;;;;;2.67;0.50;;;;;;;-142.37;100.00;59669.53;5012354;28;20033;-66
2021/07/17 00:22:53;;;;;;;1.35;0.70;;;;;;;-142.37;100.00;59669.53;5013470;28;20357;-66
2021/07/17 00:25:21;;;;;;;1.75;0.90;;;;;;;-142.37;100.00;59669.53;5013563;28;20033;-66
2021/07/17 00:27:48;;;;;;;1.23;0.43;;;;;;;-142.37;100.00;59669.53;5013313;28;20376;-66
2021/07/17 00:30:14;;;;;;;0.60;0.32;;;;;;;-142.37;100.00;59669.53;5013531;28;20069;-66
2021/07/17 00:32:41;;;;;;;1.33;0.40;;;;;;;-142.37;100.00;59669.53;5013239;28;20489;-66
2021/07/17 00:35:07;;;;;;;1.63;0.57;;;;;;;-142.37;100.00;59669.53;5011978;28;20021;-66
2021/07/17 00:37:34;;;;;;;0.68;0.40;;;;;;;-142.37;100.00;59669.53;5011962;28;20432;-66
2021/07/17 00:40:00;;;;;;;2.20;0.95;;;;;;;-142.37;100.00;59669.53;5016197;28;20034;-67
2021/07/17 00:42:29;;;;;;;1.95;0.60;;;;;;;-142.37;100.00;59669.53;5016889;28;20087;-66
2021/07/17 00:44:54;;;;;;;0.82;0.30;;;;;;;-142.37;100.00;59669.53;5032783;28;20414;-66
2021/07/17 00:47:21;;;;;;;0.80;0.60;;;;;;;-142.37;100.00;59669.53;5034307;28;20030;-66
2021/07/17 00:49:47;;;;;;;0.65;0.40;;;;;;;-142.37;100.00;59669.53;5034491;28;20462;-66
2021/07/17 00:52:12;;;;;;;1.65;0.52;;;;;;;-142.37;100.00;59669.53;5026247;28;20113;-66
2021/07/17 00:54:40;;;;;;;1.25;0.50;;;;;;;-142.37;100.00;59669.53;5017123;28;20053;-66
2021/07/17 00:57:05;;;;;;;0.85;0.43;;;;;;;-142.37;100.00;59669.53;5016738;28;20026;-66
2021/07/17 00:59:35;;;;;;;2.40;0.90;;;;;;;-142.37;100.00;59669.53;5016853;28;20053;-66
2021/07/17 01:02:01;;;;;;;1.23;0.93;;;;;;;-142.37;100.00;59669.53;5016335;28;20029;-66
2021/07/17 01:04:28;;;;;;;1.20;0.68;;;;;;;-142.37;100.00;59669.53;5016558;28;20060;-66
2021/07/17 01:06:57;;;;;;;1.75;0.30;;;;;;;-142.37;100.00;59669.53;5016520;28;20030;-66
2021/07/17 01:09:23;;;;;;;0.50;0.30;;;;;;;-142.37;100.00;59669.53;5016765;28;20056;-66
2021/07/17 01:11:48;;;;;;;1.17;0.65;;;;;;;-142.37;100.00;59669.53;5016373;28;20017;-67
2021/07/17 01:14:14;;;;;;;0.45;0.45;;;;;;;-142.37;100.00;59669.53;5016480;28;20026;-67
2021/07/17 01:16:40;;;;;;;0.70;0.60;;;;;;;-142.37;100.00;59669.53;5016339;28;20081;-67
2021/07/17 01:19:09;;;;;;;1.67;0.60;;;;;;;-142.37;100.00;59669.53;5033788;28;20033;-66
2021/07/17 01:21:34;;;;;;;1.05;0.50;;;;;;;-142.37;100.00;59669.53;5035621;28;20043;-67
2021/07/17 01:24:01;;;;;;;1.42;0.70;;;;;;;-142.37;100.00;59669.53;5036151;28;20476;-67
2021/07/17 01:26:26;;;;;;;0.60;0.40;;;;;;;-142.37;100.00;59669.53;5036035;28;20028;-67
2021/07/17 01:28:52;;;;;;;1.38;0.50;;;;;;;-142.37;100.00;59669.53;5015986;28;20030;-67
2021/07/17 01:31:18;;;;;;;2.20;0.93;;;;;;;-142.37;100.00;59669.53;5029860;28;20514;-67
2021/07/17 01:33:43;;;;;;;0.38;0.38;;;;;;;-142.37;100.00;59669.53;5036031;28;20029;-67
2021/07/17 01:36:09;;;;;;;1.75;0.70;;;;;;;-142.37;100.00;59669.53;5035571;28;20025;-67
2021/07/17 01:38:34;;;;;;;1.50;0.30;;;;;;;-142.37;100.00;59669.53;5035811;28;20030;-67
2021/07/17 01:41:02;;;;;;;1.05;0.68;;;;;;;-142.37;100.00;59669.53;5035780;28;20071;-67
2021/07/17 01:43:28;;;;;;;0.90;0.50;;;;;;;-142.37;100.00;59669.53;5036266;28;20427;-67
2021/07/17 01:45:59;;;;;;;0.98;0.50;;;;;;;-142.37;100.00;59669.53;5035621;28;20522;-67
2021/07/17 01:48:24;;;;;;;1.88;0.65;;;;;;;-142.37;100.00;59669.53;5034470;28;20387;-67
2021/07/17 01:50:51;;;;;;;1.25;0.55;;;;;;;-142.37;100.00;59669.53;5034261;28;20025;-68
2021/07/17 01:53:17;;;;;;;2.42;0.65;;;;;;;-142.37;100.00;59669.53;5035206;28;20021;-67
2021/07/17 01:55:43;;;;;;;1.05;0.68;;;;;;;-142.37;100.00;59669.53;5035601;28;20029;-67
2021/07/17 01:58:09;;;;;;;1.30;0.60;;;;;;;-142.37;100.00;59669.53;5035305;28;20108;-68
2021/07/17 02:00:35;;;;;;;1.42;0.50;;;;;;;-142.37;100.00;59669.53;5035302;28;20119;-66
2021/07/17 02:03:01;;;;;;;0.77;0.50;;;;;;;-142.37;100.00;59669.53;5033580;28;20061;-66
2021/07/17 02:05:27;;;;;;;1.17;0.60;;;;;;;-142.37;100.00;59669.53;5034938;28;20022;-65
2021/07/17 02:07:53;;;;;;;0.55;0.30;;;;;;;-142.37;100.00;59669.53;5035122;28;20029;-64
2021/07/17 02:10:27;;;;;;;1.23;0.70;;;;;;;-142.37;100.00;59669.53;5034980;28;20029;-63
2021/07/17 02:13:02;;;;;;;;;;;;;;;-142.37;100.00;59669.53;5035073;28;20051;-66
2021/07/17 02:15:29;;;;;;;0.73;0.47;;;;;;;-142.37;100.00;59669.53;5034920;28;19913;-65
2021/07/17 02:17:55;;;;;;;0.90;0.40;;;;;;;-142.37;100.00;59669.53;5026944;28;20100;-63
2021/07/17 02:20:21;;;;;;;1.05;0.40;;;;;;;-142.37;100.00;59669.53;5014804;28;20105;-64
2021/07/17 02:22:46;;;;;;;0.82;0.30;;;;;;;-142.37;100.00;59669.53;5014937;28;20044;-64
2021/07/17 02:25:12;;;;;;;1.05;0.40;;;;;;;-142.37;100.00;59669.53;5014301;28;20034;-64
2021/07/17 02:27:37;;;;;;;0.70;0.43;;;;;;;-142.37;100.00;59669.53;5014943;28;20026;-64
2021/07/17 02:30:07;;;;;;;0.55;0.38;;;;;;;-142.37;100.00;59669.53;5014431;28;20033;-64
2021/07/17 02:32:32;;;;;;;0.57;0.50;;;;;;;-142.37;100.00;59669.53;5014803;28;20080;-65
2021/07/17 02:34:58;;;;;;;0.43;0.22;;;;;;;-142.37;100.00;59669.53;5014571;28;20461;-65
2021/07/17 02:37:23;;;;;;;0.88;0.50;;;;;;;-142.37;100.00;59669.53;5014595;28;20022;-65
2021/07/17 02:39:50;;;;;;;0.95;0.55;;;;;;;-142.37;100.00;59669.53;5022693;28;20033;-65
2021/07/17 02:42:16;;;;;;;0.63;0.40;;;;;;;-142.37;100.00;59669.53;5032004;28;20029;-65
2021/07/17 02:44:41;;;;;;;1.13;0.38;;;;;;;-142.37;100.00;59669.53;5033933;28;20064;-64
2021/07/17 02:47:06;;;;;;;1.05;0.40;;;;;;;-142.37;100.00;59669.53;5034213;28;20376;-65
2021/07/17 02:49:32;;;;;;;1.23;0.30;;;;;;;-142.37;100.00;59669.53;5033906;28;20468;-65
2021/07/17 02:51:57;;;;;;;0.75;0.50;;;;;;;-142.37;100.00;59669.53;5034103;28;20032;-65
2021/07/17 02:54:23;;;;;;;0.80;0.40;;;;;;;-142.37;100.00;59669.53;5034008;28;20022;-65
2021/07/17 02:56:49;;;;;;;1.58;0.50;;;;;;;-142.37;100.00;59669.53;5033884;28;20101;-65
2021/07/17 02:59:14;;;;;;;0.82;0.40;;;;;;;-142.37;100.00;59669.53;5049335;28;20041;-66
2021/07/17 03:01:40;;;;;;;1.52;0.38;;;;;;;-142.37;100.00;59669.53;5033013;28;20037;-67
2021/07/17 03:04:06;;;;;;;0.40;0.38;;;;;;;-142.37;100.00;59669.53;5031083;28;20116;-65
2021/07/17 03:06:31;;;;;;;1.52;0.50;;;;;;;-142.37;100.00;59669.53;5012020;28;20116;-64
2021/07/17 03:08:56;;;;;;;0.77;0.50;;;;;;;-142.37;100.00;59669.53;5012909;28;20033;-64
2021/07/17 03:11:22;;;;;;;1.50;0.50;;;;;;;-142.37;100.00;59669.53;5014123;28;20349;-64
2021/07/17 03:13:48;;;;;;;0.63;0.40;;;;;;;-142.37;100.00;59669.53;5013895;28;20034;-64
2021/07/17 03:16:15;;;;;;;0.77;0.40;;;;;;;-142.37;100.00;59669.53;5013464;28;20037;-64
2021/07/17 03:18:41;;;;;;;1.55;0.88;;;;;;;-142.37;100.00;59669.53;5028165;28;20029;-64
2021/07/17 03:21:06;;;;;;;0.85;0.70;;;;;;;-142.37;100.00;59669.53;5033449;28;20048;-64
2021/07/17 03:23:31;;;;;;;1.70;0.32;;;;;;;-142.37;100.00;59669.53;5033375;28;20039;-64
2021/07/17 03:25:57;;;;;;;1.98;0.55;;;;;;;-142.37;100.00;59669.53;5033647;28;20063;-65
2021/07/17 03:28:22;;;;;;;1.08;0.57;;;;;;;-142.37;100.00;59669.53;5020987;28;20033;-66
2021/07/17 03:30:48;;;;;;;1.90;0.50;;;;;;;-142.37;100.00;59669.53;5013403;28;20097;-66
2021/07/17 03:33:13;;;;;;;0.35;0.32;;;;;;;-142.37;100.00;59669.53;5013422;28;20021;-66
2021/07/17 03:35:38;;;;;;;0.90;0.63;;;;;;;-142.37;100.00;59669.53;5013478;28;20021;-66
2021/07/17 03:38:04;;;;;;;3.92;0.40;;;;;;;-142.37;100.00;59669.53;5013258;28;20033;-66
2021/07/17 03:40:29;;;;;;;1.02;0.40;;;;;;;-142.37;100.00;59669.53;5013590;28;20029;-65
2021/07/17 03:42:55;;;;;;;0.63;0.30;;;;;;;-142.37;100.00;59669.53;5013313;28;20105;-64
2021/07/17 03:45:20;;;;;;;1.13;0.47;;;;;;;-142.37;100.00;59669.53;5013188;28;20445;-64
2021/07/17 03:47:46;;;;;;;0.93;0.70;;;;;;;-142.37;100.00;59669.53;5014083;28;20049;-64
2021/07/17 03:50:11;;;;;;;1.55;0.60;;;;;;;-142.37;100.00;59669.53;5013216;28;20125;-65
2021/07/17 03:52:37;;;;;;;0.63;0.40;;;;;;;-142.37;100.00;59669.53;5020038;28;20021;-65
2021/07/17 03:55:04;;;;;;;1.45;0.32;;;;;;;-142.37;100.00;59669.53;5028252;28;20097;-66
2021/07/17 03:57:29;;;;;;;1.17;0.40;;;;;;;-142.37;100.00;59669.53;5013606;28;20037;-67
2021/07/17 03:59:54;;;;;;;1.30;0.40;;;;;;;-142.37;100.00;59669.53;5013401;28;20050;-66
2021/07/17 04:02:21;;;;;;;0.50;0.40;;;;;;;-142.37;100.00;59669.53;5013003;28;20030;-66
2021/07/17 04:04:48;;;;;;;0.90;0.40;;;;;;;-142.37;100.00;59669.53;5013418;28;20021;-66
2021/07/17 04:07:13;;;;;;;1.17;0.45;;;;;;;-142.37;100.00;59669.53;5012968;28;20021;-67
2021/07/17 04:09:40;;;;;;;1.02;0.40;;;;;;;-142.37;100.00;59669.53;5013242;28;20026;-67
2021/07/17 04:12:05;;;;;;;2.15;0.40;;;;;;;-142.37;100.00;59669.53;5013154;28;20052;-67
2021/07/17 04:14:31;;;;;;;1.02;0.40;;;;;;;-142.37;100.00;59669.53;5016901;28;20075;-66
2021/07/17 04:16:56;;;;;;;0.60;0.60;;;;;;;-142.37;100.00;59669.53;5016884;28;20072;-65
2021/07/17 04:19:21;;;;;;;0.45;0.35;;;;;;;-142.37;100.00;59669.53;5036687;28;20029;-65
2021/07/17 04:21:47;;;;;;;0.32;0.20;;;;;;;-142.37;100.00;59669.53;5023476;28;20030;-66
2021/07/17 04:24:12;;;;;;;0.55;0.40;;;;;;;-142.37;100.00;59669.53;5017196;28;20016;-65
2021/07/17 04:26:37;;;;;;;0.88;0.50;;;;;;;-142.37;100.00;59669.53;5017088;28;20353;-65
2021/07/17 04:29:03;;;;;;;0.30;0.25;;;;;;;-142.37;100.00;59669.53;5016872;28;20488;-65
2021/07/17 04:31:28;;;;;;;0.70;0.60;;;;;;;-142.37;100.00;59669.53;5017291;28;20105;-65
2021/07/17 04:33:54;;;;;;;0.43;0.30;;;;;;;-142.37;100.00;59669.53;5016714;28;20065;-65
2021/07/17 04:36:19;;;;;;;0.43;0.40;;;;;;;-142.37;100.00;59669.53;5016696;28;20022;-65
2021/07/17 04:38:44;;;;;;;0.93;0.38;;;;;;;-142.37;100.00;59669.53;5017020;28;20036;-66
2021/07/17 04:41:10;;;;;;;0.73;0.40;;;;;;;-142.37;100.00;59669.53;5016783;28;20026;-67
2021/07/17 04:43:35;;;;;;;0.50;0.50;;;;;;;-142.37;100.00;59669.53;5016615;28;20045;-67
2021/07/17 04:46:00;;;;;;;1.50;0.68;;;;;;;-142.37;100.00;59669.53;5017689;28;20034;-67
2021/07/17 04:48:26;;;;;;;0.70;0.40;;;;;;;-142.37;100.00;59669.53;5036356;28;20036;-66
2021/07/17 04:50:52;;;;;;;1.02;0.60;;;;;;;-142.37;100.00;59669.53;5034849;28;20032;-66
2021/07/17 04:53:17;;;;;;;1.20;0.60;;;;;;;-142.37;100.00;59669.53;5036295;28;20036;-65
2021/07/17 04:55:42;;;;;;;1.30;0.40;;;;;;;-142.37;100.00;59669.53;5022829;28;20029;-65
2021/07/17 04:58:08;;;;;;;2.05;0.50;;;;;;;-142.37;100.00;59669.53;5016681;28;20014;-66
2021/07/17 05:00:33;;;;;;;1.33;0.50;;;;;;;-142.37;100.00;59669.53;5016180;28;20370;-67
2021/07/17 05:02:59;;;;;;;0.43;0.40;;;;;;;-142.37;100.00;59669.53;5016382;28;20061;-67
2021/07/17 05:05:25;;;;;;;0.70;0.28;;;;;;;-142.37;100.00;59669.53;5016305;28;20030;-67
2021/07/17 05:07:52;;;;;;;0.38;0.17;;;;;;;-142.37;100.00;59669.53;5016028;28;20091;-66
2021/07/17 05:10:19;;;;;;;0.32;0.32;;;;;;;-142.37;100.00;59669.53;5015450;28;20041;-67
2021/07/17 05:12:45;;;;;;;0.57;0.45;;;;;;;-142.37;100.00;59669.53;5016325;28;20025;-67
2021/07/17 05:15:13;;;;;;;0.60;0.45;;;;;;;-142.37;100.00;59669.53;5016180;28;20026;-68
2021/07/17 05:17:39;;;;;;;1.38;0.30;;;;;;;-142.37;100.00;59669.53;5021499;28;20021;-66
2021/07/17 05:20:06;;;;;;;0.75;0.45;;;;;;;-142.37;100.00;59669.53;5036074;28;20353;-66
2021/07/17 05:22:32;;;;;;;1.48;0.30;;;;;;;-142.37;100.00;59669.53;5035834;28;20025;-66
2021/07/17 05:24:58;;;;;;;0.30;0.30;;;;;;;-142.37;100.00;59669.53;5035127;28;20465;-65
2021/07/17 05:27:23;;;;;;;1.73;0.70;;;;;;;-142.37;100.00;59669.53;5035663;28;20064;-65
2021/07/17 05:29:48;;;;;;;1.30;0.40;;;;;;;-142.37;100.00;59669.53;5020204;28;20372;-66
2021/07/17 05:32:14;;;;;;;0.40;0.38;;;;;;;-142.37;100.00;59669.53;5023888;28;20032;-65
2021/07/17 05:34:40;;;;;;;1.73;0.60;;;;;;;-142.37;100.00;59669.53;5035450;28;20028;-65
2021/07/17 05:37:07;;;;;;;0.57;0.30;;;;;;;-142.37;100.00;59669.53;5035572;28;20018;-65
2021/07/17 05:39:32;;;;;;;0.73;0.35;;;;;;;-142.37;100.00;59669.53;5035510;28;20778;-65
2021/07/17 05:41:58;;;;;;;0.85;0.57;;;;;;;-142.37;100.00;59669.53;5035454;28;20033;-66
2021/07/17 05:44:23;;;;;;;0.40;0.40;;;;;;;-142.37;100.00;59669.53;5027549;28;20342;-65
2021/07/17 05:46:48;;;;;;;0.77;0.50;;;;;;;-142.37;100.00;59669.53;5015756;28;20025;-65
2021/07/17 05:49:13;;;;;;;0.57;0.30;;;;;;;-142.37;100.00;59669.53;5023966;28;20028;-65
2021/07/17 05:51:39;;;;;;;1.25;0.45;;;;;;;-142.37;100.00;59669.53;5030446;28;20063;-65
2021/07/17 05:54:04;;;;;;;2.83;0.30;;;;;;;-142.37;100.00;59669.53;5015234;28;20109;-66
2021/07/17 05:56:29;;;;;;;3.13;0.50;;;;;;;-142.37;100.00;59669.53;5015273;28;20113;-67
2021/07/17 05:58:55;;;;;;;1.13;0.40;;;;;;;-142.37;100.00;59669.53;5015305;28;20432;-67
2021/07/17 06:01:20;;;;;;;0.73;0.28;;;;;;;-142.37;100.00;59669.53;5015073;28;20030;-66
2021/07/17 06:03:46;;;;;;;0.70;0.43;;;;;;;-142.37;100.00;59669.53;5015290;28;20017;-65
2021/07/17 06:06:12;;;;;;;1.33;0.43;;;;;;;-142.37;100.00;59669.53;5015123;28;20469;-65
2021/07/17 06:08:37;;;;;;;0.70;0.40;;;;;;;-142.37;100.00;59669.53;5015256;28;20037;-65
2021/07/17 06:11:03;;;;;;;1.30;0.50;;;;;;;-142.37;100.00;59669.53;5014998;28;20021;-65
2021/07/17 06:13:28;;;;;;;0.70;0.52;;;;;;;-142.37;100.00;59669.53;5015067;28;20491;-65
2021/07/17 06:15:53;;;;;;;0.57;0.30;;;;;;;-142.37;100.00;59669.53;5015052;28;20026;-65
2021/07/17 06:18:19;;;;;;;1.10;0.35;;;;;;;-142.37;100.00;59669.53;5025986;28;20025;-65
2021/07/17 06:20:44;;;;;;;0.50;0.32;;;;;;;-142.37;100.00;59669.53;5021692;28;20017;-66
2021/07/17 06:23:10;;;;;;;2.35;0.50;;;;;;;-142.37;100.00;59669.53;5014418;28;20022;-66
2021/07/17 06:25:36;;;;;;;1.13;0.40;;;;;;;-142.37;100.00;59669.53;5015050;28;20376;-66
2021/07/17 06:28:01;;;;;;;1.20;0.50;;;;;;;-142.37;100.00;59669.53;5023308;28;20465;-66
2021/07/17 06:30:26;;;;;;;1.00;0.60;;;;;;;-142.37;100.00;59669.53;5034606;28;20036;-64
2021/07/17 06:32:52;;;;;;;0.43;0.30;;;;;;;-142.37;100.00;59669.53;5034598;28;20048;-64
2021/07/17 06:35:17;;;;;;;0.65;0.40;;;;;;;-142.37;100.00;59669.53;5034415;28;20026;-65
2021/07/17 06:37:42;;;;;;;0.28;0.28;;;;;;;-142.37;100.00;59669.53;5032500;28;20076;-65
2021/07/17 06:40:16;;;;;;;0.52;0.30;;;;;;;-142.37;100.00;59669.53;5034314;28;20029;-63
2021/07/17 06:42:49;;;;;;;1.80;0.73;;;;;;;-142.37;100.00;59669.53;5034282;28;20025;-63
2021/07/17 06:45:19;;;;;;;1.58;0.70;;;;;;;-142.37;100.00;59669.53;5033995;28;20727;-63
2021/07/17 06:47:45;;;;;;;0.50;0.30;;;;;;;-142.37;100.00;59669.53;5031576;28;20136;-64
2021/07/17 06:50:11;;;;;;;2.75;0.50;;;;;;;-142.37;100.00;59669.53;5034171;28;20471;-64
2021/07/17 06:52:38;;;;;;;0.63;0.43;;;;;;;-142.37;100.00;59669.53;5012659;28;20026;-64
2021/07/17 06:55:05;;;;;;;0.65;0.50;;;;;;;-142.37;100.00;59669.53;5013877;28;20033;-67
2021/07/17 06:57:30;;;;;;;0.63;0.30;;;;;;;-142.37;100.00;59669.53;5014284;28;20026;-63
2021/07/17 06:59:56;;;;;;;1.20;0.43;;;;;;;-142.37;100.00;59669.53;5013936;28;20068;-64
2021/07/17 07:02:21;;;;;;;0.85;0.40;;;;;;;-142.37;100.00;59669.53;5033483;28;20024;-63
2021/07/17 07:04:46;;;;;;;1.92;0.60;;;;;;;-142.37;100.00;59669.53;5033993;28;20024;-63
2021/07/17 07:07:11;;;;;;;0.70;0.43;;;;;;;-142.37;100.00;59669.53;5024357;28;20028;-62
2021/07/17 07:09:37;;;;;;;1.00;0.30;;;;;;;-142.37;100.00;59669.53;5014310;28;20389;-63
2021/07/17 07:12:02;;;;;;;0.50;0.30;;;;;;;-142.37;100.00;59669.53;5013964;28;20680;-63
2021/07/17 07:14:28;;;;;;;0.82;0.50;;;;;;;-142.37;100.00;59669.53;5013837;28;20040;-64
2021/07/17 07:16:55;;;;;;;1.20;0.30;;;;;;;-142.37;100.00;59669.53;5014311;28;20366;-63
2021/07/17 07:19:21;;;;;;;1.20;0.52;;;;;;;-142.37;100.00;59669.53;5031989;28;20033;-64
2021/07/17 07:21:46;;;;;;;0.73;0.20;;;;;;;-142.37;100.00;59669.53;5033665;28;20021;-64
2021/07/17 07:24:11;;;;;;;0.50;0.32;;;;;;;-142.37;100.00;59669.53;5017669;28;20067;-64
2021/07/17 07:26:37;;;;;;;0.63;0.30;;;;;;;-142.37;100.00;59669.53;5013837;28;20040;-64
2021/07/17 07:29:02;;;;;;;0.80;0.40;;;;;;;-142.37;100.00;59669.53;5013644;28;20412;-64
2021/07/17 07:31:27;;;;;;;0.65;0.35;;;;;;;-142.37;100.00;59669.53;5013368;28;20030;-64
2021/07/17 07:33:53;;;;;;;1.08;0.60;;;;;;;-142.37;100.00;59669.53;5013830;28;20060;-64
2021/07/17 07:36:18;;;;;;;0.30;0.30;;;;;;;-142.37;100.00;59669.53;5013778;28;20021;-63
2021/07/17 07:38:44;;;;;;;0.80;0.30;;;;;;;-142.37;100.00;59669.53;5013575;28;20409;-64
2021/07/17 07:41:10;;;;;;;2.65;0.63;;;;;;;-142.37;100.00;59669.53;5013481;28;20022;-63
2021/07/17 07:43:35;;;;;;;1.77;0.45;;;;;;;-142.37;100.00;59669.53;5014315;28;20465;-64
2021/07/17 07:46:01;;;;;;;1.58;0.50;;;;;;;-142.37;100.00;59669.53;5033141;28;20026;-64
2021/07/17 07:48:26;;;;;;;1.20;0.40;;;;;;;-142.37;100.00;59669.53;5032996;28;20494;-64
2021/07/17 07:50:51;;;;;;;1.67;0.63;;;;;;;-142.37;100.00;59669.53;5032880;28;20040;-65
2021/07/17 07:53:17;;;;;;;0.50;0.30;;;;;;;-142.37;100.00;59669.53;5033260;28;20079;-64
2021/07/17 07:55:42;;;;;;;1.35;0.45;;;;;;;-142.37;100.00;59669.53;5033308;28;20057;-64
2021/07/17 07:58:07;;;;;;;1.20;0.40;;;;;;;-142.37;100.00;59669.53;5033088;28;20017;-65
2021/07/17 08:00:33;;;;;;;1.23;0.40;;;;;;;-142.37;100.00;59669.53;5032994;28;20037;-65
2021/07/17 08:02:58;;;;;;;1.38;0.35;;;;;;;-142.37;100.00;59669.53;5032717;28;20060;-66
2021/07/17 08:05:24;;;;;;;1.35;0.52;;;;;;;-142.37;100.00;59669.53;5033005;28;20037;-66
2021/07/17 08:07:50;;;;;;;1.15;0.30;;;;;;;-142.37;100.00;59669.53;5029707;28;20714;-63
2021/07/17 08:10:15;;;;;;;1.25;0.40;;;;;;;-142.37;100.00;59669.53;5013279;28;20068;-63
2021/07/17 08:12:41;;;;;;;1.90;0.40;;;;;;;-142.37;100.00;59669.53;5013778;28;20026;-63
2021/07/17 08:15:07;;;;;;;0.85;0.30;;;;;;;-142.37;100.00;59669.53;5013120;28;20018;-63
2021/07/17 08:17:32;;;;;;;0.63;0.40;;;;;;;-142.37;100.00;59669.53;5014512;28;20796;-64
2021/07/17 08:19:57;;;;;;;0.88;0.30;;;;;;;-142.37;100.00;59669.53;5013069;28;20037;-64
2021/07/17 08:22:23;;;;;;;1.02;0.40;;;;;;;-142.37;100.00;59669.53;5012876;28;20377;-63
2021/07/17 08:24:48;;;;;;;1.08;0.43;;;;;;;-142.37;100.00;59669.53;5012944;28;20045;-64
2021/07/17 08:27:14;;;;;;;1.30;0.50;;;;;;;-142.37;100.00;59669.53;5013099;28;20026;-64
2021/07/17 08:29:39;;;;;;;0.77;0.20;;;;;;;-142.37;100.00;59669.53;5012861;28;20049;-64
2021/07/17 08:32:05;;;;;;;1.25;0.30;;;;;;;-142.37;100.00;59669.53;5012776;28;20032;-65
2021/07/17 08:34:31;;;;;;;0.65;0.40;;;;;;;-142.37;100.00;59669.53;5013043;28;20101;-65
2021/07/17 08:36:56;;;;;;;0.63;0.28;;;;;;;-142.37;100.00;59669.53;5012989;28;20109;-65
2021/07/17 08:39:21;;;;;;;1.45;0.17;;;;;;;-142.37;100.00;59669.53;5013132;28;20029;-64
2021/07/17 08:41:49;;;;;;;1.95;0.40;;;;;;;-142.37;100.00;59669.53;5013020;28;20473;-64
2021/07/17 08:44:16;;;;;;;0.50;0.40;;;;;;;-142.37;100.00;59669.53;5012977;28;20080;-64
2021/07/17 08:46:42;;;;;;;0.82;0.30;;;;;;;-142.37;100.00;59669.53;5012922;28;20033;-64
2021/07/17 08:49:10;;;;;;;0.63;0.30;;;;;;;-142.37;100.00;59669.53;5012810;28;20036;-64
2021/07/17 08:51:36;;;;;;;0.98;0.45;;;;;;;-142.37;100.00;59669.53;5012861;28;20026;-64
2021/07/17 08:54:02;;;;;;;1.83;0.32;;;;;;;-142.37;100.00;59669.53;5012569;28;20034;-64
2021/07/17 08:56:29;;;;;;;1.00;0.60;;;;;;;-142.37;100.00;59669.53;5012770;28;20079;-64
2021/07/17 08:58:54;;;;;;;0.98;0.30;;;;;;;-142.37;100.00;59669.53;5012576;28;20448;-64
2021/07/17 09:01:20;;;;;;;1.65;0.52;;;;;;;-142.37;100.00;59669.53;5016042;28;20035;-64
2021/07/17 09:03:47;;;;;;;0.52;0.45;;;;;;;-142.37;100.00;59669.53;5016462;28;20029;-65
2021/07/17 09:06:12;;;;;;;0.47;0.32;;;;;;;-142.37;100.00;59669.53;5016104;28;20029;-65
2021/07/17 09:08:38;;;;;;;0.65;0.50;;;;;;;-142.37;100.00;59669.53;5016385;28;20067;-66
2021/07/17 09:11:04;;;;;;;0.80;0.22;;;;;;;-142.37;100.00;59669.53;5016268;28;20112;-66
2021/07/17 09:13:34;;;;;;;0.90;0.43;;;;;;;-142.37;100.00;59669.53;5016236;28;20113;-65
2021/07/17 09:16:04;;;;;;;0.88;0.40;;;;;;;-142.37;100.00;59669.53;5016139;28;20040;-66
2021/07/17 09:18:40;;;;;;;1.65;0.47;;;;;;;-142.37;100.00;59669.53;5028630;28;20071;-66
2021/07/17 09:21:31;;;;;;;0.50;0.30;;;;;;;-142.37;100.00;59669.53;5035799;28;20029;-67
2021/07/17 09:23:59;;;;;;;0.60;0.30;;;;;;;-142.37;100.00;59669.53;5035174;28;20018;-64
2021/07/17 09:26:29;;;;;;;0.40;0.20;;;;;;;-142.37;100.00;59669.53;5035917;28;20116;-65
2021/07/17 09:29:10;;;;;;;0.47;0.13;;;;;;;-142.37;100.00;59669.53;5034298;28;20052;-66
2021/07/17 09:31:38;;;;;;;0.43;0.30;;;;;;;-142.37;100.00;59669.53;5035719;28;20025;-65
2021/07/17 09:34:13;;;;;;;0.30;0.30;;;;;;;-142.37;100.00;59669.53;5033615;28;20117;-65
2021/07/17 09:37:00;;;;;;;0.40;0.30;;;;;;;-142.37;100.00;59669.53;5015553;28;20109;-65
2021/07/17 09:39:34;;;;;;;1.60;0.22;;;;;;;-142.37;100.00;59669.53;5015715;28;20037;-65
2021/07/17 09:42:02;;;;;;;0.75;0.30;;;;;;;-142.37;100.00;59669.53;5015665;28;20429;-65
2021/07/17 09:44:28;;;;;;;0.57;0.40;;;;;;;-142.37;100.00;59669.53;5014898;28;20084;-65
2021/07/17 09:46:54;;;;;;;0.68;0.28;;;;;;;-142.37;100.00;59669.53;5019454;28;20029;-65
2021/07/17 09:49:22;;;;;;;0.65;0.35;;;;;;;-142.37;100.00;59669.53;5018753;28;20028;-64
2021/07/17 09:51:48;;;;;;;0.60;0.35;;;;;;;-142.37;100.00;59669.53;5035446;28;20033;-65
2021/07/17 09:54:14;;;;;;;0.65;0.40;;;;;;;-142.37;100.00;59669.53;5035200;28;20040;-64
2021/07/17 09:56:41;;;;;;;0.20;0.20;;;;;;;-142.37;100.00;59669.53;5034094;28;20021;-64
2021/07/17 09:59:09;;;;;;;0.60;0.28;;;;;;;-142.37;100.00;59669.53;5034755;28;20403;-65
2021/07/17 10:01:37;;;;;;;1.08;0.65;;;;;;;-142.37;100.00;59669.53;5035149;28;20025;-64
2021/07/17 10:04:12;;;;;;;1.02;0.30;;;;;;;-142.37;100.00;59669.53;5034890;28;20025;-65
2021/07/17 10:06:42;;;;;;;0.43;0.25;;;;;;;-142.37;100.00;59669.53;5014956;28;20476;-65
2021/07/17 10:09:22;;;;;;;1.38;0.32;;;;;;;-142.37;100.00;59669.53;5015229;28;20535;-65
2021/07/17 10:11:53;;;;;;;1.45;0.57;;;;;;;-142.37;100.00;59669.53;5014916;28;20064;-64
2021/07/17 10:14:21;;;;;;;1.00;0.30;;;;;;;-142.37;100.00;59669.53;5014943;28;20591;-65
2021/07/17 10:16:49;;;;;;;1.15;0.30;;;;;;;-142.37;100.00;59669.53;5015207;28;20065;-64
2021/07/17 10:19:15;;;;;;;1.45;0.50;;;;;;;-142.37;100.00;59669.53;5033278;28;20606;-65
2021/07/17 10:21:41;;;;;;;0.47;0.40;;;;;;;-142.37;100.00;59669.53;5034577;28;20033;-65
2021/07/17 10:24:07;;;;;;;0.90;0.30;;;;;;;-142.37;100.00;59669.53;5034673;28;20022;-66
2021/07/17 10:26:32;;;;;;;0.45;0.28;;;;;;;-142.37;100.00;59669.53;5019250;28;20037;-65
2021/07/17 10:29:04;;;;;;;0.85;0.25;;;;;;;-142.37;100.00;59669.53;5014691;28;20036;-65
2021/07/17 10:31:29;;;;;;;0.73;0.40;;;;;;;-142.37;100.00;59669.53;5014873;28;20038;-65
2021/07/17 10:33:54;;;;;;;1.02;0.35;;;;;;;-142.37;100.00;59669.53;5014679;28;20393;-65
2021/07/17 10:36:20;;;;;;;0.30;0.30;;;;;;;-142.37;100.00;59669.53;5014408;28;20460;-65
2021/07/17 10:38:51;;;;;;;0.57;0.20;;;;;;;-142.37;100.00;59669.53;5014641;28;20026;-65
2021/07/17 10:41:18;;;;;;;0.65;0.30;;;;;;;-142.37;100.00;59669.53;5014594;28;20026;-65
2021/07/17 10:43:54;;;;;;;0.30;0.30;;;;;;;-142.37;100.00;59669.53;5014491;28;20045;-64
2021/07/17 10:46:29;;;;;;;1.45;0.35;;;;;;;-142.37;100.00;59669.53;5014565;28;20040;-63
2021/07/17 10:48:56;;;;;;;0.60;0.30;;;;;;;-142.37;100.00;59669.53;5014510;28;20026;-64
2021/07/17 10:51:22;;;;;;;1.60;0.60;;;;;;;-142.37;100.00;59669.53;5014638;28;20508;-65
2021/07/17 10:53:48;;;;;;;0.35;0.20;;;;;;;-142.37;100.00;59669.53;5014307;28;20076;-64
2021/07/17 10:56:29;;;;;;;0.70;0.30;;;;;;;-142.37;100.00;59669.53;5014356;28;20021;-63
2021/07/17 10:59:10;;;;;;;0.25;0.25;;;;;;;-142.37;100.00;59669.53;5013836;28;20488;-63
2021/07/17 11:01:58;;;;;;;0.82;0.35;;;;;;;-142.37;100.00;59669.53;5014049;28;20030;-64
2021/07/17 11:04:49;;;;;;;1.08;0.28;;;;;;;-142.37;100.00;59669.53;5013930;28;20041;-64
2021/07/17 11:07:29;;;;;;;1.85;0.38;;;;;;;-142.37;100.00;59669.53;5013783;28;20029;-64